createdAt,value
2023-02-15T00:00:12.154Z,20.58
2023-02-15T00:02:42.450Z,21.85
2023-02-15T00:05:10.217Z,23.02
2023-02-15T00:07:37.416Z,21.48
2023-02-15T00:10:06.276Z,20.33
2023-02-15T00:12:33.790Z,24.73
2023-02-15T00:15:00.993Z,23.23
2023-02-15T00:17:31.260Z,24.98
2023-02-15T00:19:58.479Z,24.10
2023-02-15T00:22:26.967Z,23.98
2023-02-15T00:24:54.052Z,21.20
2023-02-15T00:27:24.488Z,23.00
2023-02-15T00:29:51.988Z,20.27
2023-02-15T00:32:19.149Z,21.98
2023-02-15T00:34:46.282Z,22.30
2023-02-15T00:37:13.394Z,20.58
2023-02-15T00:39:40.592Z,23.03
2023-02-15T00:42:07.759Z,21.73
2023-02-15T00:44:35.202Z,20.60
2023-02-15T00:47:02.389Z,20.58
2023-02-15T00:49:29.515Z,21.10
2023-02-15T00:51:56.701Z,20.87
2023-02-15T00:54:23.809Z,21.53
2023-02-15T00:56:51.023Z,22.37
2023-02-15T00:59:18.238Z,22.10
2023-02-15T01:01:45.563Z,22.30
2023-02-15T01:04:12.914Z,23.13
2023-02-15T01:06:40.097Z,21.13
2023-02-15T01:09:07.333Z,21.85
2023-02-15T01:11:34.479Z,22.43
2023-02-15T01:14:01.631Z,22.00
2023-02-15T01:16:29.967Z,21.83
2023-02-15T01:18:57.594Z,21.30
2023-02-15T01:21:26.768Z,21.83
2023-02-15T01:23:54.279Z,21.70
2023-02-15T01:26:24.578Z,21.97
2023-02-15T01:28:51.902Z,23.23
2023-02-15T01:31:22.536Z,22.43
2023-02-15T01:33:53.112Z,22.00
2023-02-15T01:36:20.347Z,21.27
2023-02-15T01:38:47.765Z,22.33
2023-02-15T01:41:21.280Z,21.13
2023-02-15T01:43:53.047Z,21.10
2023-02-15T01:46:41.440Z,21.60
2023-02-15T01:49:21.873Z,20.90
2023-02-15T01:51:53.927Z,21.37
2023-02-15T01:54:33.700Z,22.23
2023-02-15T01:57:31.951Z,20.33
2023-02-15T02:00:03.531Z,20.87
2023-02-15T02:02:30.858Z,21.10
2023-02-15T02:05:07.532Z,20.40
2023-02-15T02:07:40.761Z,19.87
2023-02-15T02:10:15.963Z,20.13
2023-02-15T02:12:46.243Z,18.33
2023-02-15T02:15:14.944Z,18.63
2023-02-15T02:17:57.537Z,17.27
2023-02-15T02:20:41.852Z,18.77
2023-02-15T02:23:26.908Z,19.20
2023-02-15T02:26:38.938Z,18.33
2023-02-15T02:29:37.075Z,17.50
2023-02-15T02:32:26.060Z,16.90
2023-02-15T02:35:17.127Z,19.57
2023-02-15T02:38:05.520Z,19.33
2023-02-15T02:41:29.418Z,17.23
2023-02-15T02:44:10.375Z,18.67
2023-02-15T02:47:30.784Z,17.83
2023-02-15T02:50:10.750Z,17.93
2023-02-15T02:52:50.962Z,20.47
2023-02-15T02:55:27.023Z,20.77
2023-02-15T02:58:28.964Z,19.27
2023-02-15T03:01:33.352Z,19.60
2023-02-15T03:04:09.980Z,19.33
2023-02-15T03:07:05.779Z,20.17
2023-02-15T03:09:43.854Z,19.73
2023-02-15T03:12:22.685Z,19.17
2023-02-15T03:15:08.246Z,17.98
2023-02-15T03:17:42.456Z,19.20
2023-02-15T03:20:17.460Z,20.10
2023-02-15T03:22:53.943Z,21.20
2023-02-15T03:25:30.841Z,19.10
2023-02-15T03:28:06.161Z,19.60
2023-02-15T03:30:39.320Z,18.98
2023-02-15T03:33:08.796Z,19.60
2023-02-15T03:36:08.198Z,20.38
2023-02-15T03:39:09.554Z,18.63
2023-02-15T03:41:49.430Z,18.23
2023-02-15T03:44:58.103Z,18.83
2023-02-15T03:47:37.318Z,18.55
2023-02-15T03:50:49.733Z,19.50
2023-02-15T03:53:24.470Z,20.00
2023-02-15T03:55:55.749Z,18.97
2023-02-15T03:58:41.718Z,19.20
2023-02-15T04:02:09.837Z,18.90
2023-02-15T04:04:47.385Z,18.90
2023-02-15T04:07:14.809Z,19.97
2023-02-15T04:10:00.728Z,18.63
2023-02-15T04:12:27.876Z,19.73
2023-02-15T04:15:13.929Z,21.50
2023-02-15T04:17:41.136Z,18.85
2023-02-15T04:20:28.648Z,19.47
2023-02-15T04:23:14.627Z,19.23
2023-02-15T04:25:41.951Z,19.48
2023-02-15T04:28:09.199Z,18.00
2023-02-15T04:30:36.558Z,17.80
2023-02-15T04:33:03.811Z,18.63
2023-02-15T04:35:32.678Z,18.63
2023-02-15T04:38:03.679Z,20.00
2023-02-15T04:40:30.982Z,19.90
2023-02-15T04:42:58.105Z,18.70
2023-02-15T04:45:25.336Z,21.27
2023-02-15T04:47:52.484Z,20.10
2023-02-15T04:50:19.832Z,18.77
2023-02-15T04:52:47.102Z,20.37
2023-02-15T04:55:15.358Z,19.60
2023-02-15T04:57:47.425Z,18.17
2023-02-15T05:00:15.025Z,20.37
2023-02-15T05:02:42.271Z,18.10
2023-02-15T05:05:10.544Z,19.47
2023-02-15T05:07:37.713Z,19.53
2023-02-15T05:10:05.617Z,18.20
2023-02-15T05:12:32.716Z,18.17
2023-02-15T05:15:03.195Z,17.47
2023-02-15T05:17:30.370Z,20.77
2023-02-15T05:19:57.618Z,21.53
2023-02-15T05:22:24.770Z,20.23
2023-02-15T05:25:11.153Z,19.70
2023-02-15T05:27:56.964Z,20.55
2023-02-15T05:30:24.251Z,20.30
2023-02-15T05:32:51.464Z,20.40
2023-02-15T05:35:22.133Z,19.23
2023-02-15T05:37:49.295Z,19.57
2023-02-15T05:40:16.654Z,19.07
2023-02-15T05:42:44.152Z,19.13
2023-02-15T05:45:14.527Z,19.10
2023-02-15T05:47:41.755Z,21.03
2023-02-15T05:50:09.897Z,19.50
2023-02-15T05:52:37.172Z,17.67
2023-02-15T05:55:06.320Z,18.43
2023-02-15T05:57:33.695Z,18.60
2023-02-15T06:00:00.930Z,19.73
2023-02-15T06:02:28.291Z,19.17
2023-02-15T06:04:55.418Z,18.77
2023-02-15T06:07:22.657Z,17.73
2023-02-15T06:09:53.385Z,18.40
2023-02-15T06:12:24.231Z,19.27
2023-02-15T06:14:51.434Z,19.87
2023-02-15T06:17:19.038Z,18.97
2023-02-15T06:19:46.224Z,18.53
2023-02-15T06:22:15.095Z,19.70
2023-02-15T06:24:45.103Z,17.50
2023-02-15T06:27:12.191Z,17.87
2023-02-15T06:29:39.708Z,18.27
2023-02-15T06:32:07.253Z,18.70
2023-02-15T06:34:34.681Z,17.80
2023-02-15T06:37:01.849Z,18.23
2023-02-15T06:39:29.067Z,19.13
2023-02-15T06:41:56.296Z,20.30
2023-02-15T06:44:23.604Z,19.03
2023-02-15T06:46:51.256Z,19.47
2023-02-15T06:49:18.838Z,20.17
2023-02-15T06:51:46.362Z,22.33
2023-02-15T06:54:13.477Z,20.97
2023-02-15T06:56:40.774Z,21.83
2023-02-15T06:59:11.517Z,22.00
2023-02-15T07:01:39.128Z,23.20
2023-02-15T07:04:06.426Z,22.23
2023-02-15T07:06:34.753Z,22.97
2023-02-15T07:09:02.590Z,23.33
2023-02-15T07:11:48.668Z,23.10
2023-02-15T07:14:16.159Z,24.80
2023-02-15T07:16:43.338Z,23.60
2023-02-15T07:19:13.484Z,23.33
2023-02-15T07:21:41.044Z,25.63
2023-02-15T07:24:08.820Z,24.73
2023-02-15T07:26:36.040Z,24.13
2023-02-15T07:29:03.259Z,23.50
2023-02-15T07:31:30.674Z,24.00
2023-02-15T07:33:57.801Z,23.27
2023-02-15T07:36:24.976Z,23.23
2023-02-15T07:38:52.043Z,24.30
2023-02-15T07:41:19.290Z,23.97
2023-02-15T07:43:46.824Z,24.67
2023-02-15T07:46:17.735Z,25.43
2023-02-15T07:48:48.591Z,25.63
2023-02-15T07:51:16.865Z,25.30
2023-02-15T07:53:44.805Z,24.98
2023-02-15T07:56:13.749Z,24.83
2023-02-15T07:58:52.481Z,23.87
2023-02-15T08:01:19.486Z,26.60
2023-02-15T08:03:46.677Z,24.13
2023-02-15T08:06:14.246Z,23.73
2023-02-15T08:08:42.916Z,25.10
2023-02-15T08:11:30.278Z,23.90
2023-02-15T08:14:12.337Z,22.77
2023-02-15T08:16:45.013Z,23.83
2023-02-15T08:19:24.847Z,21.60
2023-02-15T08:21:57.816Z,21.67
2023-02-15T08:24:32.227Z,23.90
2023-02-15T08:27:00.263Z,22.27
2023-02-15T08:29:29.678Z,21.53
2023-02-15T08:32:03.181Z,20.08
2023-02-15T08:34:34.041Z,20.67
2023-02-15T08:37:02.071Z,21.73
2023-02-15T08:39:29.927Z,21.33
2023-02-15T08:41:57.294Z,21.53
2023-02-15T08:44:24.646Z,21.50
2023-02-15T08:46:52.126Z,20.20
2023-02-15T08:49:23.314Z,22.43
2023-02-15T08:51:51.558Z,21.00
2023-02-15T08:54:22.748Z,21.93
2023-02-15T08:56:50.262Z,21.27
2023-02-15T08:59:23.269Z,21.93
2023-02-15T09:01:52.959Z,22.10
2023-02-15T09:04:21.905Z,21.47
2023-02-15T09:06:50.824Z,21.67
2023-02-15T09:09:19.828Z,22.63
2023-02-15T09:11:55.340Z,21.10
2023-02-15T09:14:28.297Z,21.43
2023-02-15T09:16:56.336Z,20.97
2023-02-15T09:19:25.087Z,22.33
2023-02-15T09:21:52.631Z,22.97
2023-02-15T09:24:22.818Z,21.63
2023-02-15T09:26:50.289Z,20.63
2023-02-15T09:29:19.426Z,21.07
2023-02-15T09:31:50.898Z,21.90
2023-02-15T09:34:21.537Z,20.47
2023-02-15T09:36:49.730Z,21.87
2023-02-15T09:39:30.535Z,22.93
2023-02-15T09:42:32.677Z,22.77
2023-02-15T09:45:29.972Z,22.73
2023-02-15T09:48:28.691Z,22.47
2023-02-15T09:51:24.974Z,23.93
2023-02-15T09:54:22.806Z,23.58
2023-02-15T09:57:11.492Z,24.47
2023-02-15T10:00:06.627Z,22.00
2023-02-15T10:02:50.563Z,23.20
2023-02-15T10:05:24.087Z,22.87
2023-02-15T10:08:15.744Z,23.83
2023-02-15T10:10:46.046Z,24.33
2023-02-15T10:13:46.397Z,23.45
2023-02-15T10:16:43.530Z,23.98
2023-02-15T10:19:33.185Z,22.10
2023-02-15T10:22:19.548Z,24.48
2023-02-15T10:25:27.723Z,21.92
2023-02-15T10:27:55.004Z,20.63
2023-02-15T10:31:11.462Z,22.50
2023-02-15T10:33:44.426Z,21.92
2023-02-15T10:36:36.228Z,21.85
2023-02-15T10:39:30.744Z,21.40
2023-02-15T10:42:33.364Z,21.75
2023-02-15T10:45:40.710Z,22.38
2023-02-15T10:48:56.797Z,21.20
2023-02-15T10:51:48.938Z,20.90
2023-02-15T10:54:30.985Z,21.35
2023-02-15T10:57:31.660Z,21.35
2023-02-15T11:00:39.937Z,20.63
2023-02-15T11:04:08.715Z,22.53
2023-02-15T11:06:40.842Z,21.47
2023-02-15T11:09:14.094Z,20.25
2023-02-15T11:11:44.726Z,21.88
2023-02-15T11:14:42.576Z,22.03
2023-02-15T11:17:21.034Z,20.70
2023-02-15T11:20:11.203Z,19.38
2023-02-15T11:22:39.452Z,20.85
2023-02-15T11:25:31.194Z,21.60
2023-02-15T11:28:11.339Z,21.20
2023-02-15T11:30:48.803Z,21.73
2023-02-15T11:33:37.151Z,20.85
2023-02-15T11:36:19.055Z,21.25
2023-02-15T11:38:48.655Z,21.92
2023-02-15T11:41:26.282Z,21.73
2023-02-15T11:44:38.314Z,21.73
2023-02-15T11:47:13.151Z,22.40
2023-02-15T11:49:40.815Z,21.48
2023-02-15T11:52:15.832Z,21.92
2023-02-15T11:54:52.859Z,23.73
2023-02-15T11:57:37.657Z,22.92
2023-02-15T12:00:25.382Z,24.08
2023-02-15T12:02:56.273Z,23.50
2023-02-15T12:05:26.193Z,23.42
2023-02-15T12:08:09.531Z,24.50
2023-02-15T12:10:45.112Z,24.08
2023-02-15T12:13:21.307Z,24.55
2023-02-15T12:15:53.521Z,24.67
2023-02-15T12:18:39.973Z,23.63
2023-02-15T12:21:27.800Z,23.90
2023-02-15T12:24:05.023Z,23.20
2023-02-15T12:26:36.655Z,23.45
2023-02-15T12:29:17.510Z,23.67
2023-02-15T12:31:52.835Z,22.85
2023-02-15T12:34:27.984Z,23.42
2023-02-15T12:37:01.343Z,22.85
2023-02-15T12:39:31.052Z,22.15
2023-02-15T12:42:05.773Z,25.45
2023-02-15T12:44:38.132Z,23.52
2023-02-15T12:47:17.232Z,24.50
2023-02-15T12:49:48.626Z,25.55
2023-02-15T12:52:21.618Z,23.75
2023-02-15T12:54:50.381Z,24.05
2023-02-15T12:57:29.374Z,24.67
2023-02-15T13:00:04.638Z,23.90
2023-02-15T13:02:51.066Z,25.45
2023-02-15T13:05:39.616Z,23.67
2023-02-15T13:08:29.501Z,25.98
2023-02-15T13:11:07.544Z,24.80
2023-02-15T13:13:57.083Z,24.70
2023-02-15T13:19:28.835Z,24.50
2023-02-15T13:22:03.176Z,25.10
2023-02-15T13:24:48.875Z,23.60
2023-02-15T13:27:22.388Z,21.63
2023-02-15T13:30:00.522Z,21.95
2023-02-15T13:32:41.893Z,24.17
2023-02-15T13:35:17.732Z,23.58
2023-02-15T13:41:05.081Z,24.05
2023-02-15T13:43:43.605Z,24.65
2023-02-15T13:46:45.909Z,23.90
2023-02-15T13:49:50.657Z,24.15
2023-02-15T13:52:25.575Z,25.20
2023-02-15T13:58:19.764Z,24.25
2023-02-15T14:01:16.872Z,24.63
2023-02-15T14:04:24.687Z,23.23
2023-02-15T14:07:13.757Z,24.38
2023-02-15T14:10:30.973Z,23.35
2023-02-15T14:13:13.871Z,23.98
2023-02-15T14:15:51.671Z,23.27
2023-02-15T14:18:55.548Z,23.73
2023-02-15T14:21:37.854Z,23.70
2023-02-15T14:24:36.959Z,25.40
2023-02-15T14:27:19.139Z,26.92
2023-02-15T14:30:06.142Z,24.53
2023-02-15T14:33:33.238Z,25.65
2023-02-15T14:36:05.026Z,23.15
2023-02-15T14:38:56.860Z,24.35
2023-02-15T14:41:54.778Z,25.02
2023-02-15T14:44:38.864Z,24.52
2023-02-15T14:47:27.386Z,26.77
2023-02-15T14:49:54.698Z,24.20
2023-02-15T14:52:22.118Z,25.58
2023-02-15T14:54:49.118Z,26.83
2023-02-15T14:57:16.220Z,26.17
2023-02-15T15:00:01.230Z,24.40
2023-02-15T15:02:51.583Z,25.85
2023-02-15T15:05:33.417Z,25.13
2023-02-15T15:08:02.550Z,25.02
2023-02-15T15:10:44.364Z,24.67
2023-02-15T15:13:33.495Z,26.65
2023-02-15T15:16:52.732Z,25.25
2023-02-15T15:19:52.266Z,26.23
2023-02-15T15:22:25.964Z,25.38
2023-02-15T15:25:02.966Z,25.45
2023-02-15T15:27:55.318Z,24.70
2023-02-15T15:30:22.486Z,25.95
2023-02-15T15:32:56.232Z,24.90
2023-02-15T15:35:45.963Z,24.95
2023-02-15T15:38:49.349Z,25.57
2023-02-15T15:41:51.016Z,25.05
2023-02-15T15:45:40.443Z,26.00
2023-02-15T15:48:34.489Z,24.17
2023-02-15T15:51:34.501Z,24.92
2023-02-15T15:54:04.931Z,25.40
2023-02-15T15:56:36.935Z,26.25
2023-02-15T15:59:15.795Z,26.23
2023-02-15T16:01:46.582Z,25.95
2023-02-15T16:04:35.261Z,26.38
2023-02-15T16:07:19.615Z,25.58
2023-02-15T16:09:59.041Z,24.17
2023-02-15T16:12:34.258Z,26.25
2023-02-15T16:15:44.140Z,26.17
2023-02-15T16:18:18.338Z,25.63
2023-02-15T16:21:01.457Z,26.17
2023-02-15T16:24:05.641Z,27.30
2023-02-15T16:26:48.063Z,26.25
2023-02-15T16:29:18.277Z,28.05
2023-02-15T16:32:03.600Z,26.77
2023-02-15T16:34:34.478Z,26.38
2023-02-15T16:37:21.284Z,27.23
2023-02-15T16:39:49.747Z,24.60
2023-02-15T16:42:20.565Z,27.33
2023-02-15T16:45:07.364Z,24.03
2023-02-15T16:47:42.342Z,24.20
2023-02-15T16:50:39.386Z,25.75
2023-02-15T16:53:17.976Z,25.58
2023-02-15T16:55:53.897Z,26.27
2023-02-15T16:58:42.758Z,25.97
2023-02-15T17:01:15.021Z,27.13
2023-02-15T17:03:51.699Z,25.73
2023-02-15T17:06:30.791Z,25.80
2023-02-15T17:09:20.719Z,26.50
2023-02-15T17:11:57.855Z,26.50
2023-02-15T17:14:43.574Z,26.27
2023-02-15T17:17:16.276Z,25.13
2023-02-15T17:19:55.191Z,24.77
2023-02-15T17:22:30.880Z,28.90
2023-02-15T17:27:38.209Z,24.80
2023-02-15T17:30:20.569Z,26.10
2023-02-15T17:32:59.211Z,25.20
2023-02-15T17:35:34.325Z,23.57
2023-02-15T17:38:22.482Z,25.73
2023-02-15T17:40:51.530Z,28.33
2023-02-15T17:43:20.761Z,25.90
2023-02-15T17:45:53.237Z,27.23
2023-02-15T17:48:34.272Z,26.15
2023-02-15T17:51:13.850Z,26.73
2023-02-15T17:54:11.798Z,27.23
2023-02-15T17:56:41.140Z,28.30
2023-02-15T17:59:12.999Z,25.80
2023-02-15T18:02:10.062Z,28.07
2023-02-15T18:07:50.032Z,27.00
2023-02-15T18:10:38.428Z,28.60
2023-02-15T18:13:08.333Z,28.57
2023-02-15T18:15:38.489Z,27.20
2023-02-15T18:18:13.568Z,27.33
2023-02-15T18:20:44.249Z,28.70
2023-02-15T18:23:15.580Z,29.60
2023-02-15T18:25:48.550Z,27.03
2023-02-15T18:28:23.713Z,29.37
2023-02-15T18:30:53.439Z,28.10
2023-02-15T18:33:43.174Z,28.80
2023-02-15T18:36:26.129Z,29.10
2023-02-15T18:38:56.066Z,30.13
2023-02-15T18:41:25.196Z,28.73
2023-02-15T18:43:57.774Z,29.77
2023-02-15T18:46:31.140Z,28.33
2023-02-15T18:49:00.245Z,29.10
2023-02-15T18:51:30.426Z,29.73
2023-02-15T18:54:00.119Z,29.43
2023-02-15T18:56:29.032Z,29.83
2023-02-15T18:58:58.067Z,31.70
2023-02-15T19:01:29.286Z,30.67
2023-02-15T19:03:59.107Z,28.20
2023-02-15T19:06:28.005Z,30.07
2023-02-15T19:08:59.503Z,27.20
2023-02-15T19:11:29.692Z,30.23
2023-02-15T19:14:00.529Z,29.57
2023-02-15T19:16:50.310Z,32.00
2023-02-15T19:19:19.269Z,29.93
2023-02-15T19:21:49.344Z,33.00
2023-02-15T19:24:29.835Z,32.73
2023-02-15T19:27:00.132Z,32.30
2023-02-15T19:29:31.327Z,30.83
2023-02-15T19:32:02.421Z,31.30
2023-02-15T19:34:34.195Z,33.37
2023-02-15T19:37:04.865Z,34.23
2023-02-15T19:39:43.248Z,35.47
2023-02-15T19:42:18.462Z,35.83
2023-02-15T19:44:50.764Z,35.00
2023-02-15T19:47:20.331Z,33.67
2023-02-15T19:49:50.100Z,35.80
2023-02-15T19:52:26.428Z,34.87
2023-02-15T19:54:56.651Z,34.27
2023-02-15T19:57:29.636Z,39.33
2023-02-15T20:00:01.643Z,39.57
2023-02-15T20:02:34.382Z,34.83
2023-02-15T20:05:04.642Z,36.73
2023-02-15T20:07:34.236Z,37.43
2023-02-15T20:10:06.023Z,37.53
2023-02-15T20:12:35.986Z,38.20
2023-02-15T20:15:30.526Z,36.97
2023-02-15T20:18:07.816Z,38.60
2023-02-15T20:20:42.448Z,36.67
2023-02-15T20:23:38.201Z,38.43
2023-02-15T20:26:21.214Z,38.17
2023-02-15T20:28:49.968Z,37.30
2023-02-15T20:31:26.252Z,37.40
2023-02-15T20:33:55.377Z,37.53
2023-02-15T20:36:25.478Z,37.90
2023-02-15T20:38:54.199Z,39.00
2023-02-15T20:41:39.557Z,38.70
2023-02-15T20:44:29.553Z,38.83
2023-02-15T20:47:00.852Z,39.50
2023-02-15T20:49:29.836Z,37.93
2023-02-15T20:51:59.262Z,38.80
2023-02-15T20:54:37.897Z,35.57
2023-02-15T20:57:08.117Z,35.43
2023-02-15T20:59:42.469Z,36.17
2023-02-15T21:02:25.444Z,35.40
2023-02-15T21:04:55.605Z,34.90
2023-02-15T21:07:28.483Z,36.70
2023-02-15T21:09:59.119Z,38.63
2023-02-15T21:12:29.429Z,36.90
2023-02-15T21:15:00.523Z,36.23
2023-02-15T21:17:29.152Z,34.83
2023-02-15T21:19:56.981Z,36.57
2023-02-15T21:22:26.468Z,36.33
2023-02-15T21:24:55.146Z,37.17
2023-02-15T21:27:23.302Z,35.10
2023-02-15T21:29:54.950Z,34.23
2023-02-15T21:32:22.764Z,35.67
2023-02-15T21:34:51.088Z,35.37
2023-02-15T21:37:35.845Z,35.07
2023-02-15T21:40:07.086Z,32.67
2023-02-15T21:42:56.048Z,31.77
2023-02-15T21:45:42.914Z,33.30
2023-02-15T21:48:10.885Z,31.53
2023-02-15T21:50:57.578Z,33.00
2023-02-15T21:53:46.889Z,31.43
2023-02-15T21:56:22.461Z,32.90
2023-02-15T22:01:24.944Z,32.87
2023-02-15T22:03:55.207Z,32.72
2023-02-15T22:06:23.466Z,33.77
2023-02-15T22:08:50.712Z,33.70
2023-02-15T22:11:24.389Z,34.43
2023-02-15T22:13:51.878Z,32.70
2023-02-15T22:16:23.251Z,34.03
2023-02-15T22:18:50.875Z,35.97
2023-02-15T22:21:19.264Z,36.27
2023-02-15T22:23:47.322Z,36.13
2023-02-15T22:26:25.511Z,35.47
2023-02-15T22:28:53.359Z,34.80
2023-02-15T22:31:23.453Z,38.33
2023-02-15T22:33:51.358Z,36.77
2023-02-15T22:36:30.761Z,36.13
2023-02-15T22:38:58.462Z,35.20
2023-02-15T22:41:31.258Z,35.80
2023-02-15T22:43:58.791Z,33.93
2023-02-15T22:46:26.568Z,35.33
2023-02-15T22:48:54.162Z,35.10
2023-02-15T22:51:24.551Z,37.50
2023-02-15T22:53:54.683Z,37.43
2023-02-15T22:56:31.442Z,35.53
2023-02-15T22:59:05.811Z,34.00
2023-02-15T23:01:36.767Z,35.57
2023-02-15T23:04:04.432Z,38.33
2023-02-15T23:06:34.340Z,36.90
2023-02-15T23:09:01.605Z,36.43
2023-02-15T23:11:29.217Z,35.83
2023-02-15T23:13:56.474Z,35.23
2023-02-15T23:16:23.687Z,37.13
2023-02-15T23:18:51.171Z,38.10
2023-02-15T23:21:35.830Z,36.87
2023-02-15T23:24:26.189Z,36.87
2023-02-15T23:26:54.332Z,37.33
2023-02-15T23:29:23.910Z,36.03
2023-02-15T23:31:54.721Z,38.17
2023-02-15T23:34:29.229Z,39.77
2023-02-15T23:36:57.102Z,35.87
2023-02-15T23:39:47.287Z,36.33
2023-02-15T23:42:23.289Z,37.17
2023-02-15T23:44:54.243Z,36.90
2023-02-15T23:47:42.163Z,35.10
2023-02-15T23:50:23.114Z,34.90
2023-02-15T23:52:52.713Z,32.70
2023-02-15T23:55:20.316Z,36.00
2023-02-15T23:57:48.968Z,35.13
